Página principal
METAR-TAF:

METAR-TAF

Aeroportos :

Curaçao, Antilhas Neerlandesas

Aeroporto Internacional Hato

latitude: 12-12N, longitude: 068-58W, altura: 9 m

Observação actual do tempo

O boletim foi feito há 54 minutos, às 11:00 UTC
Vento 9 kt de este
Temperatura 24°C
Humidade 78%
Pressão 1015 hPa
Visibilidade 10 km ou mais
Poucas nuvensa uma altura de 1800 ft
Nuvens dispersasa uma altura de 4000 ft

METAR: TNCC 241100Z 09009KT 9999 FEW018 SCT040 24/20 Q1015 NOSIG

Hora: 07:54 (11:54 UTC)

Previsão

O boletim foi feito há 1 hora e 54 minutos, às 10:00 UTC
Previsão válida de 24 às 12 UTC a 25 às 12 UTC
Vento 14 kt de este
Visibilidade 10 km ou mais
Nuvens dispersasa uma altura de 2000 ft
Temporariamente
de 24 às 12 UTC a 25 às 12 UTC
Visibilidade: 7000 m
Nuvens fragmentadasa uma altura de 1500 ft
aguaceiros de chuva

TAF: TNCC 241000Z 2412/2512 09014KT 9999 SCT020 TEMPO 2412/2512 7000 SHRA BKN015

Observações e previsões do tempo de mais de 4000 aeroportos (mensagens METAR e TAF).

As estações disponíveis são os pontos amarelos e vermelhos sobre o mapa.

Mova o rato sobre o mapa para ver o nome da estação.

Depois clique no ponto para visualizar as observações e previsões meteorológicas.

Para alterar o mapa : clique nos botões verdes com uma cruz preta para aumentar o zoom; no botão verde com uma pitada de zoom; ou nas setas verdes para mapas adjacentes.


METAR-TAF: